createdAt,value
2018-09-01T00:01:43.315Z,57.41
2018-09-01T00:04:10.962Z,57.94
2018-09-01T00:06:38.571Z,57.89
2018-09-01T00:09:06.711Z,57.63
2018-09-01T00:11:34.392Z,57.88
2018-09-01T00:14:02.034Z,58.11
2018-09-01T00:16:29.677Z,57.48
2018-09-01T00:18:57.320Z,57.64
2018-09-01T00:21:24.992Z,57.68
2018-09-01T00:23:52.591Z,58.29
2018-09-01T00:26:20.220Z,58.30
2018-09-01T00:28:47.842Z,58.43
2018-09-01T00:31:15.482Z,58.19
2018-09-01T00:33:43.127Z,58.36
2018-09-01T00:36:10.876Z,58.31
2018-09-01T00:38:44.074Z,58.56
2018-09-01T00:41:11.687Z,58.45
2018-09-01T00:43:39.297Z,58.65
2018-09-01T00:46:06.950Z,58.55
2018-09-01T00:48:34.586Z,59.06
2018-09-01T00:51:02.212Z,58.92
2018-09-01T00:53:29.856Z,58.92
2018-09-01T00:55:57.496Z,59.00
2018-09-01T00:58:25.113Z,59.71
2018-09-01T01:00:52.769Z,59.35
2018-09-01T01:03:20.376Z,59.18
2018-09-01T01:05:48.086Z,59.16
2018-09-01T01:08:15.741Z,59.25
2018-09-01T01:10:43.323Z,58.96
2018-09-01T01:13:10.934Z,58.69
2018-09-01T01:15:38.568Z,58.66
2018-09-01T01:18:06.170Z,58.46
2018-09-01T01:20:33.781Z,58.97
2018-09-01T01:23:01.519Z,58.71
2018-09-01T01:25:29.133Z,58.74
2018-09-01T01:27:56.798Z,58.95
2018-09-01T01:30:24.446Z,59.39
2018-09-01T01:32:52.091Z,58.96
2018-09-01T01:35:19.727Z,59.14
2018-09-01T01:37:47.366Z,59.46
2018-09-01T01:40:15.011Z,59.18
2018-09-01T01:42:42.805Z,60.15
2018-09-01T01:45:10.565Z,59.66
2018-09-01T01:47:39.594Z,59.82
2018-09-01T01:50:08.142Z,59.96
2018-09-01T01:52:35.791Z,60.36
2018-09-01T01:55:03.440Z,60.06
2018-09-01T01:57:31.137Z,60.37
2018-09-01T01:59:58.760Z,60.75
2018-09-01T02:02:26.457Z,60.84
2018-09-01T02:04:54.055Z,60.68
2018-09-01T02:07:21.727Z,60.59
2018-09-01T02:09:49.373Z,60.40
2018-09-01T02:12:16.963Z,59.96
2018-09-01T02:14:44.626Z,60.26
2018-09-01T02:17:12.342Z,60.21
2018-09-01T02:19:40.061Z,60.33
2018-09-01T02:22:07.715Z,59.88
2018-09-01T02:24:35.372Z,60.23
2018-09-01T02:27:02.979Z,60.37
2018-09-01T02:29:30.630Z,60.40
2018-09-01T02:31:58.286Z,60.19
2018-09-01T02:34:25.876Z,60.27
2018-09-01T02:36:53.508Z,60.30
2018-09-01T02:39:21.096Z,60.05
2018-09-01T02:41:48.692Z,60.64
2018-09-01T02:44:16.337Z,60.30
2018-09-01T02:46:43.956Z,60.64
2018-09-01T02:49:11.598Z,60.62
2018-09-01T02:51:39.266Z,60.49
2018-09-01T02:54:06.919Z,60.63
2018-09-01T02:56:34.582Z,60.42
2018-09-01T02:59:02.269Z,60.45
2018-09-01T03:01:34.934Z,60.39
2018-09-01T03:04:02.632Z,60.44
2018-09-01T03:06:41.311Z,60.72
2018-09-01T03:09:08.945Z,60.10
2018-09-01T03:11:36.650Z,60.23
2018-09-01T03:14:04.285Z,60.53
2018-09-01T03:16:31.935Z,60.78
2018-09-01T03:18:59.608Z,60.97
2018-09-01T03:21:27.191Z,61.30
2018-09-01T03:23:54.855Z,61.70
2018-09-01T03:26:22.487Z,61.63
2018-09-01T03:28:50.252Z,61.20
2018-09-01T03:31:17.872Z,61.18
2018-09-01T03:33:45.465Z,61.43
2018-09-01T03:36:13.257Z,60.55
2018-09-01T03:38:40.896Z,60.73
2018-09-01T03:41:08.572Z,61.01
2018-09-01T03:43:36.212Z,61.19
2018-09-01T03:46:03.894Z,61.29
2018-09-01T03:48:31.512Z,61.63
2018-09-01T03:50:59.207Z,61.33
2018-09-01T03:53:26.827Z,61.48
2018-09-01T03:55:54.482Z,61.73
2018-09-01T03:58:22.175Z,61.99
2018-09-01T04:00:49.991Z,61.93
2018-09-01T04:03:17.610Z,61.83
2018-09-01T04:05:45.262Z,61.84
2018-09-01T04:08:12.894Z,62.09
2018-09-01T04:10:40.508Z,61.95
2018-09-01T04:13:08.111Z,62.11
2018-09-01T04:15:35.807Z,61.71
2018-09-01T04:18:03.423Z,61.62
2018-09-01T04:20:31.043Z,62.59
2018-09-01T04:22:58.684Z,62.97
2018-09-01T04:25:26.292Z,63.30
2018-09-01T04:27:53.946Z,63.12
2018-09-01T04:30:21.599Z,63.13
2018-09-01T04:32:49.243Z,63.29
2018-09-01T04:35:16.861Z,63.05
2018-09-01T04:37:44.583Z,63.34
2018-09-01T04:40:12.185Z,63.33
2018-09-01T04:42:39.794Z,63.31
2018-09-01T04:45:07.511Z,63.08
2018-09-01T04:47:35.081Z,63.13
2018-09-01T04:50:02.732Z,63.12
2018-09-01T04:52:30.390Z,62.98
2018-09-01T04:54:58.023Z,63.18
2018-09-01T04:57:25.659Z,63.27
2018-09-01T04:59:53.285Z,63.34
2018-09-01T05:02:20.888Z,63.16
2018-09-01T05:04:48.499Z,62.46
2018-09-01T05:07:16.223Z,62.49
2018-09-01T05:09:43.836Z,62.48
2018-09-01T05:12:11.587Z,62.67
2018-09-01T05:14:39.215Z,62.73
2018-09-01T05:17:07.109Z,62.49
2018-09-01T05:19:34.742Z,62.41
2018-09-01T05:22:02.591Z,62.29
2018-09-01T05:24:30.219Z,61.79
2018-09-01T05:26:57.986Z,61.12
2018-09-01T05:29:25.696Z,60.57
2018-09-01T05:31:53.304Z,60.41
2018-09-01T05:34:20.954Z,59.63
2018-09-01T05:36:48.564Z,60.03
2018-09-01T05:39:16.173Z,58.95
2018-09-01T05:41:43.819Z,59.54
2018-09-01T05:44:11.459Z,57.78
2018-09-01T05:46:39.098Z,58.44
2018-09-01T05:49:06.765Z,58.68
2018-09-01T05:51:34.446Z,57.61
2018-09-01T05:54:02.069Z,57.93
2018-09-01T05:56:29.681Z,57.76
2018-09-01T05:58:57.307Z,56.19
2018-09-01T06:01:24.990Z,55.45
2018-09-01T06:03:52.678Z,55.63
2018-09-01T06:06:20.353Z,55.32
2018-09-01T06:08:47.996Z,55.02
2018-09-01T06:11:15.591Z,54.49
2018-09-01T06:13:43.220Z,54.73
2018-09-01T06:16:10.827Z,54.32
2018-09-01T06:18:38.462Z,54.53
2018-09-01T06:21:06.081Z,54.65
2018-09-01T06:23:33.663Z,55.12
2018-09-01T06:26:01.312Z,54.92
2018-09-01T06:28:37.811Z,54.57
2018-09-01T06:31:05.931Z,54.71
2018-09-01T06:33:33.609Z,53.87
2018-09-01T06:36:01.367Z,54.25
2018-09-01T06:38:28.966Z,53.87
2018-09-01T06:40:56.585Z,54.40
2018-09-01T06:43:24.199Z,52.87
2018-09-01T06:45:51.915Z,52.65
2018-09-01T06:48:19.596Z,53.32
2018-09-01T06:50:47.228Z,52.93
2018-09-01T06:53:14.813Z,52.72
2018-09-01T06:55:42.415Z,53.20
2018-09-01T06:58:10.083Z,52.49
2018-09-01T07:00:37.680Z,53.77
2018-09-01T07:03:05.630Z,52.67
2018-09-01T07:05:33.279Z,52.99
2018-09-01T07:08:00.923Z,53.35
2018-09-01T07:10:28.580Z,52.64
2018-09-01T07:12:56.240Z,53.04
2018-09-01T07:15:23.847Z,52.44
2018-09-01T07:17:51.486Z,52.36
2018-09-01T07:20:19.156Z,53.16
2018-09-01T07:22:46.772Z,53.05
2018-09-01T07:25:14.535Z,53.12
2018-09-01T07:27:42.210Z,52.62
2018-09-01T07:30:10.642Z,52.91
2018-09-01T07:32:38.564Z,53.77
2018-09-01T07:35:06.309Z,53.58
2018-09-01T07:37:33.951Z,53.38
2018-09-01T07:40:01.549Z,53.26
2018-09-01T07:42:29.184Z,52.54
2018-09-01T07:44:56.919Z,52.59
2018-09-01T07:47:24.609Z,51.95
2018-09-01T07:49:52.744Z,51.10
2018-09-01T07:52:20.376Z,51.97
2018-09-01T07:54:47.973Z,51.19
2018-09-01T07:57:15.600Z,51.80
2018-09-01T07:59:43.218Z,51.52
2018-09-01T08:02:10.808Z,51.71
2018-09-01T08:04:38.440Z,51.79
2018-09-01T08:07:06.047Z,51.28
2018-09-01T08:09:33.668Z,51.99
2018-09-01T08:12:01.375Z,51.73
2018-09-01T08:14:29.035Z,51.90
2018-09-01T08:16:56.791Z,52.37
2018-09-01T08:19:24.439Z,52.23
2018-09-01T08:21:52.155Z,52.77
2018-09-01T08:24:19.763Z,52.77
2018-09-01T08:26:47.400Z,52.46
2018-09-01T08:29:15.063Z,51.79
2018-09-01T08:31:42.680Z,52.50
2018-09-01T08:34:10.381Z,52.48
2018-09-01T08:36:38.019Z,52.30
2018-09-01T08:39:06.541Z,51.63
2018-09-01T08:41:34.195Z,49.83
2018-09-01T08:44:01.788Z,48.77
2018-09-01T08:46:29.450Z,44.93
2018-09-01T08:48:57.096Z,43.40
2018-09-01T08:51:24.712Z,41.13
2018-09-01T08:53:52.409Z,40.22
2018-09-01T08:56:20.136Z,41.07
2018-09-01T08:58:47.720Z,42.15
2018-09-01T09:01:15.346Z,42.05
2018-09-01T09:03:43.003Z,42.85
2018-09-01T09:06:10.631Z,42.85
2018-09-01T09:08:38.330Z,43.04
2018-09-01T09:11:06.353Z,43.99
2018-09-01T09:13:33.999Z,44.78
2018-09-01T09:16:01.636Z,45.72
2018-09-01T09:18:29.319Z,45.96
2018-09-01T09:20:56.921Z,47.11
2018-09-01T09:23:24.559Z,47.06
2018-09-01T09:25:52.226Z,47.97
2018-09-01T09:28:19.822Z,47.84
2018-09-01T09:30:47.507Z,48.13
2018-09-01T09:33:15.171Z,48.53
2018-09-01T09:35:42.756Z,49.02
2018-09-01T09:38:10.415Z,48.49
2018-09-01T09:40:38.067Z,48.33
2018-09-01T09:43:06.008Z,48.46
2018-09-01T09:45:33.614Z,47.96
2018-09-01T09:48:01.260Z,47.95
2018-09-01T09:50:28.868Z,47.55
2018-09-01T09:52:56.491Z,48.16
2018-09-01T09:55:24.140Z,47.77
2018-09-01T09:57:51.758Z,48.40
2018-09-01T10:00:24.987Z,48.36
2018-09-01T10:02:52.603Z,47.81
2018-09-01T10:05:20.255Z,48.92
2018-09-01T10:07:47.877Z,48.92
2018-09-01T10:10:15.471Z,49.44
2018-09-01T10:12:43.059Z,50.42
2018-09-01T10:15:10.672Z,49.58
2018-09-01T10:17:38.294Z,49.85
2018-09-01T10:20:06.044Z,50.00
2018-09-01T10:22:33.680Z,50.25
2018-09-01T10:25:01.259Z,49.82
2018-09-01T10:27:28.860Z,49.58
2018-09-01T10:29:56.482Z,49.99
2018-09-01T10:32:24.101Z,50.78
2018-09-01T10:34:51.807Z,51.38
2018-09-01T10:37:19.505Z,51.11
2018-09-01T10:39:47.114Z,50.80
2018-09-01T10:42:14.731Z,50.44
2018-09-01T10:44:42.405Z,50.40
2018-09-01T10:47:10.008Z,50.60
2018-09-01T10:49:37.591Z,49.65
2018-09-01T10:52:05.344Z,49.67
2018-09-01T10:54:32.956Z,50.45
2018-09-01T10:57:00.559Z,50.59
2018-09-01T10:59:28.372Z,50.47
2018-09-01T11:01:55.898Z,50.32
2018-09-01T11:04:23.699Z,49.50
2018-09-01T11:06:51.355Z,50.18
2018-09-01T11:09:18.982Z,49.66
2018-09-01T11:11:46.617Z,50.00
2018-09-01T11:14:14.249Z,49.77
2018-09-01T11:16:41.867Z,49.22
2018-09-01T11:19:09.513Z,49.20
2018-09-01T11:21:37.411Z,48.30
2018-09-01T11:24:05.083Z,46.96
2018-09-01T11:26:32.674Z,47.11
2018-09-01T11:29:00.382Z,47.48
2018-09-01T11:31:28.068Z,45.95
2018-09-01T11:33:55.684Z,45.69
2018-09-01T11:36:23.379Z,45.58
2018-09-01T11:38:51.068Z,44.54
2018-09-01T11:41:18.739Z,44.53
2018-09-01T11:43:46.398Z,43.32
2018-09-01T11:46:14.072Z,44.42
2018-09-01T11:48:41.702Z,44.83
2018-09-01T11:51:09.343Z,44.50
2018-09-01T11:53:36.983Z,43.49
2018-09-01T11:56:04.617Z,43.83
2018-09-01T11:58:32.284Z,44.64
2018-09-01T12:01:00.016Z,44.75
2018-09-01T12:03:27.628Z,43.97
2018-09-01T12:05:55.342Z,43.29
2018-09-01T12:08:22.956Z,43.99
2018-09-01T12:10:50.630Z,44.20
2018-09-01T12:13:18.267Z,44.08
2018-09-01T12:15:45.933Z,44.68
2018-09-01T12:18:13.544Z,44.39
2018-09-01T12:20:41.387Z,44.41
2018-09-01T12:23:09.013Z,44.39
2018-09-01T12:25:36.617Z,44.97
2018-09-01T12:28:04.378Z,44.20
2018-09-01T12:30:31.964Z,44.82
2018-09-01T12:32:59.597Z,45.35
2018-09-01T12:35:27.252Z,44.96
2018-09-01T12:37:54.848Z,43.08
2018-09-01T12:40:22.456Z,43.78
2018-09-01T12:42:50.280Z,42.63
2018-09-01T12:45:17.903Z,43.08
2018-09-01T12:47:45.495Z,43.77
2018-09-01T12:50:13.196Z,43.89
2018-09-01T12:52:40.844Z,44.92
2018-09-01T12:55:08.485Z,43.46
2018-09-01T12:57:36.182Z,43.75
2018-09-01T13:00:03.992Z,43.79
2018-09-01T13:02:31.651Z,43.89
2018-09-01T13:04:59.310Z,44.18
2018-09-01T13:07:26.915Z,43.67
2018-09-01T13:09:54.533Z,43.65
2018-09-01T13:12:22.160Z,44.06
2018-09-01T13:14:49.764Z,44.16
2018-09-01T13:17:17.340Z,43.34
2018-09-01T13:19:45.064Z,43.91
2018-09-01T13:22:12.613Z,43.78
2018-09-01T13:24:40.183Z,42.96
2018-09-01T13:27:07.832Z,43.62
2018-09-01T13:29:35.460Z,42.04
2018-09-01T13:32:03.144Z,42.96
2018-09-01T13:34:30.959Z,42.92
2018-09-01T13:36:58.570Z,42.83
2018-09-01T13:39:26.273Z,42.58
2018-09-01T13:41:54.051Z,42.50
2018-09-01T13:44:21.677Z,42.45
2018-09-01T13:46:49.311Z,42.86
2018-09-01T13:49:17.042Z,42.68
2018-09-01T13:51:44.659Z,42.77
2018-09-01T13:54:12.330Z,43.38
2018-09-01T13:56:40.000Z,43.45
2018-09-01T13:59:07.597Z,43.45
2018-09-01T14:01:35.235Z,43.07
2018-09-01T14:04:02.935Z,43.16
2018-09-01T14:06:30.567Z,43.32
2018-09-01T14:08:58.170Z,43.21
2018-09-01T14:11:25.827Z,44.03
2018-09-01T14:13:53.405Z,44.00
2018-09-01T14:16:21.004Z,44.48
2018-09-01T14:18:48.738Z,45.54
2018-09-01T14:21:16.332Z,46.62
2018-09-01T14:23:44.011Z,47.10
2018-09-01T14:26:11.694Z,47.65
2018-09-01T14:28:39.378Z,48.11
2018-09-01T14:31:06.960Z,47.84
2018-09-01T14:33:34.663Z,48.53
2018-09-01T14:36:04.072Z,48.53
2018-09-01T14:38:30.101Z,48.80
2018-09-01T14:40:57.743Z,48.18
2018-09-01T14:43:25.339Z,47.67
2018-09-01T14:45:52.951Z,47.92
2018-09-01T14:48:20.700Z,47.83
2018-09-01T14:50:48.231Z,47.97
2018-09-01T14:53:15.917Z,47.65
2018-09-01T14:55:43.514Z,48.26
2018-09-01T14:58:11.119Z,48.87
2018-09-01T15:00:38.842Z,48.60
2018-09-01T15:03:06.471Z,49.00
2018-09-01T15:05:34.102Z,48.50
2018-09-01T15:08:01.792Z,49.06
2018-09-01T15:10:29.523Z,48.97
2018-09-01T15:12:57.132Z,48.95
2018-09-01T15:15:24.748Z,49.51
2018-09-01T15:17:52.402Z,50.24
2018-09-01T15:20:20.135Z,50.70
2018-09-01T15:22:47.740Z,51.26
2018-09-01T15:25:15.400Z,51.48
2018-09-01T15:27:43.054Z,51.98
2018-09-01T15:30:10.663Z,52.04
2018-09-01T15:32:38.373Z,52.10
2018-09-01T15:35:06.184Z,52.38
2018-09-01T15:37:33.803Z,52.67
2018-09-01T15:40:01.485Z,53.17
2018-09-01T15:42:29.086Z,53.40
2018-09-01T15:44:56.676Z,53.49
2018-09-01T15:47:24.379Z,53.40
2018-09-01T15:49:52.059Z,53.24
2018-09-01T15:52:19.662Z,54.10
2018-09-01T15:54:47.343Z,53.60
2018-09-01T15:57:14.980Z,53.80
2018-09-01T15:59:42.559Z,54.30
2018-09-01T16:02:10.195Z,54.82
2018-09-01T16:04:37.891Z,55.08
2018-09-01T16:07:05.514Z,54.88
2018-09-01T16:09:33.210Z,54.41
2018-09-01T16:12:00.874Z,54.40
2018-09-01T16:14:28.524Z,54.28
2018-09-01T16:16:56.167Z,54.72
2018-09-01T16:19:23.877Z,54.63
2018-09-01T16:21:51.548Z,54.32
2018-09-01T16:24:19.224Z,54.63
2018-09-01T16:26:46.875Z,54.58
2018-09-01T16:29:14.481Z,54.73
2018-09-01T16:31:42.144Z,55.27
2018-09-01T16:34:09.736Z,54.93
2018-09-01T16:36:37.330Z,55.32
2018-09-01T16:39:05.835Z,54.91
2018-09-01T16:41:33.427Z,55.16
2018-09-01T16:44:01.039Z,55.49
2018-09-01T16:46:28.691Z,55.21
2018-09-01T16:48:56.348Z,55.34
2018-09-01T16:51:23.991Z,54.89
2018-09-01T16:53:51.680Z,55.28
2018-09-01T16:56:19.278Z,55.36
2018-09-01T16:58:47.044Z,55.66
2018-09-01T17:01:14.664Z,55.72
2018-09-01T17:03:42.307Z,55.30
2018-09-01T17:06:09.913Z,55.98
2018-09-01T17:08:37.538Z,55.79
2018-09-01T17:11:05.164Z,56.21
2018-09-01T17:13:32.748Z,56.26
2018-09-01T17:16:00.385Z,56.12
2018-09-01T17:18:28.145Z,56.51
2018-09-01T17:20:55.784Z,56.06
2018-09-01T17:23:23.407Z,56.93
2018-09-01T17:25:51.129Z,56.42
2018-09-01T17:28:18.780Z,56.30
2018-09-01T17:30:46.558Z,56.72
2018-09-01T17:33:14.251Z,56.71
2018-09-01T17:35:41.852Z,56.81
2018-09-01T17:38:09.476Z,56.40
2018-09-01T17:40:37.064Z,56.69
2018-09-01T17:43:04.867Z,56.97
2018-09-01T17:45:32.529Z,57.10
2018-09-01T17:48:00.131Z,57.28
2018-09-01T17:50:27.763Z,57.10
2018-09-01T17:52:55.403Z,57.54
2018-09-01T17:55:23.103Z,57.17
2018-09-01T17:57:50.788Z,57.68
2018-09-01T18:00:18.752Z,57.71
2018-09-01T18:02:46.353Z,57.39
2018-09-01T18:05:13.952Z,57.89
2018-09-01T18:07:41.602Z,58.24
2018-09-01T18:10:09.292Z,57.93
2018-09-01T18:12:36.919Z,58.03
2018-09-01T18:15:04.615Z,58.66
2018-09-01T18:17:32.333Z,58.38
2018-09-01T18:19:59.940Z,58.85
2018-09-01T18:22:27.614Z,58.61
2018-09-01T18:24:55.185Z,59.10
2018-09-01T18:27:22.850Z,59.34
2018-09-01T18:29:50.538Z,59.10
2018-09-01T18:32:18.151Z,59.19
2018-09-01T18:34:45.783Z,59.81
2018-09-01T18:37:13.471Z,59.51
2018-09-01T18:39:41.118Z,59.92
2018-09-01T18:42:08.812Z,59.52
2018-09-01T18:44:36.563Z,59.99
2018-09-01T18:47:04.196Z,60.07
2018-09-01T18:49:31.895Z,60.32
2018-09-01T18:51:59.540Z,60.46
2018-09-01T18:54:27.144Z,60.69
2018-09-01T18:56:54.762Z,60.55
2018-09-01T18:59:22.488Z,60.62
2018-09-01T19:01:50.136Z,60.47
2018-09-01T19:04:17.742Z,60.30
2018-09-01T19:06:45.383Z,60.17
2018-09-01T19:09:12.995Z,60.30
2018-09-01T19:11:40.606Z,60.07
2018-09-01T19:14:08.295Z,59.74
2018-09-01T19:16:35.919Z,60.21
2018-09-01T19:19:03.540Z,59.92
2018-09-01T19:21:31.251Z,59.37
2018-09-01T19:23:58.863Z,58.96
2018-09-01T19:26:26.471Z,58.90
2018-09-01T19:28:54.152Z,59.53
2018-09-01T19:31:21.799Z,59.40
2018-09-01T19:33:49.396Z,59.33
2018-09-01T19:36:17.103Z,59.58
2018-09-01T19:38:44.714Z,59.08
2018-09-01T19:41:12.314Z,59.37
2018-09-01T19:43:40.074Z,59.81
2018-09-01T19:46:07.731Z,59.72
2018-09-01T19:48:35.343Z,59.71
2018-09-01T19:51:02.992Z,59.76
2018-09-01T19:53:30.605Z,60.30
2018-09-01T19:55:58.253Z,60.72
2018-09-01T19:58:25.893Z,61.07
2018-09-01T20:00:53.489Z,60.93
2018-09-01T20:03:21.139Z,61.27
2018-09-01T20:05:48.771Z,60.65
2018-09-01T20:08:16.447Z,61.21
2018-09-01T20:10:44.075Z,61.23
2018-09-01T20:13:11.722Z,61.92
2018-09-01T20:15:39.346Z,62.43
2018-09-01T20:18:06.959Z,62.40
2018-09-01T20:20:34.591Z,62.37
2018-09-01T20:23:02.320Z,62.51
2018-09-01T20:25:30.004Z,62.38
2018-09-01T20:27:57.672Z,62.82
2018-09-01T20:30:25.335Z,62.65
2018-09-01T20:32:52.980Z,62.79
2018-09-01T20:35:26.156Z,63.25
2018-09-01T20:37:53.844Z,63.50
2018-09-01T20:40:21.659Z,63.79
2018-09-01T20:42:49.314Z,63.79
2018-09-01T20:45:17.841Z,64.14
2018-09-01T20:47:45.636Z,63.92
2018-09-01T20:50:13.475Z,63.88
2018-09-01T20:52:41.151Z,63.45
2018-09-01T20:55:09.028Z,63.48
2018-09-01T20:57:36.782Z,63.72
2018-09-01T21:00:05.105Z,63.78
2018-09-01T21:02:32.844Z,63.88
2018-09-01T21:05:00.753Z,63.85
2018-09-01T21:07:28.619Z,64.10
2018-09-01T21:09:56.462Z,64.59
2018-09-01T21:12:24.211Z,64.34
2018-09-01T21:14:51.981Z,64.15
2018-09-01T21:17:19.702Z,64.73
2018-09-01T21:19:47.452Z,64.84
2018-09-01T21:22:15.056Z,65.02
2018-09-01T21:24:42.960Z,65.47
2018-09-01T21:27:10.800Z,65.23
2018-09-01T21:29:38.478Z,65.37
2018-09-01T21:32:06.243Z,65.80
2018-09-01T21:34:34.122Z,65.59
2018-09-01T21:37:02.019Z,65.72
2018-09-01T21:39:29.896Z,65.65
2018-09-01T21:41:57.651Z,66.18
2018-09-01T21:44:25.358Z,65.74
2018-09-01T21:46:53.001Z,66.09
2018-09-01T21:49:20.715Z,66.08
2018-09-01T21:51:48.546Z,66.23
2018-09-01T21:54:16.219Z,66.58
2018-09-01T21:56:43.959Z,66.58
2018-09-01T21:59:12.387Z,66.11
2018-09-01T22:01:40.161Z,66.65
2018-09-01T22:04:07.923Z,66.42
2018-09-01T22:06:35.631Z,66.27
2018-09-01T22:09:03.767Z,66.02
2018-09-01T22:11:31.503Z,66.34
2018-09-01T22:13:59.303Z,66.44
2018-09-01T22:16:26.939Z,66.52
2018-09-01T22:18:54.606Z,66.90
2018-09-01T22:21:22.210Z,67.03
2018-09-01T22:23:49.861Z,67.45
2018-09-01T22:26:17.658Z,66.74
2018-09-01T22:28:45.281Z,66.77
2018-09-01T22:31:12.920Z,67.08
2018-09-01T22:33:40.594Z,66.96
2018-09-01T22:36:08.233Z,67.22
2018-09-01T22:38:35.898Z,67.00
2018-09-01T22:41:03.648Z,67.25
2018-09-01T22:43:31.327Z,67.39
2018-09-01T22:45:59.035Z,68.09
2018-09-01T22:48:26.665Z,68.11
2018-09-01T22:50:54.299Z,68.19
2018-09-01T22:53:21.906Z,68.38
2018-09-01T22:55:49.566Z,68.79
2018-09-01T22:58:17.226Z,68.99
2018-09-01T23:00:44.837Z,69.07
2018-09-01T23:03:12.480Z,69.33
2018-09-01T23:05:40.126Z,69.63
2018-09-01T23:08:07.740Z,69.61
2018-09-01T23:10:35.515Z,69.96
2018-09-01T23:13:03.211Z,70.00
2018-09-01T23:15:31.852Z,69.94
2018-09-01T23:17:59.477Z,70.09
2018-09-01T23:20:27.207Z,69.86
2018-09-01T23:22:54.831Z,69.58
2018-09-01T23:25:22.501Z,69.98
2018-09-01T23:27:50.197Z,70.25
2018-09-01T23:30:17.774Z,70.44
2018-09-01T23:32:45.399Z,70.57
2018-09-01T23:35:14.087Z,70.62
2018-09-01T23:37:41.689Z,70.25
2018-09-01T23:40:09.347Z,69.39
2018-09-01T23:42:37.004Z,69.45
2018-09-01T23:45:04.684Z,69.09
2018-09-01T23:47:32.323Z,69.17
2018-09-01T23:49:59.981Z,68.74
2018-09-01T23:52:27.642Z,68.13
2018-09-01T23:54:55.295Z,68.12
2018-09-01T23:57:22.922Z,68.13
2018-09-01T23:59:50.571Z,68.21
